Time;durP1;ratioP1;P1;durP2;ratioP2;P2;SDS_P1;SDS_P2;PMS_P1;PMS_P2;Temp;Humidity;BMP_temperature;BMP_pressure;BME280_temperature;BME280_humidity;BME280_pressure;Samples;Min_cycle;Max_cycle;Signal;HPM_P1;HPM_P2
2023/06/04 00:01:02;;;;;;;19.90;8.10;;;17.50;99.90;;;;;;4894057;29;20041;-93
2023/06/04 00:03:28;;;;;;;15.77;8.15;;;17.30;99.90;;;;;;4894427;29;20033;-94
2023/06/04 00:05:56;;;;;;;15.20;8.50;;;17.20;99.90;;;;;;4893806;29;20033;-94
2023/06/04 00:08:23;;;;;;;17.50;7.97;;;17.20;99.90;;;;;;4893335;29;20037;-95
2023/06/04 00:10:49;;;;;;;13.35;8.27;;;17.20;99.90;;;;;;4879039;29;20040;-94
2023/06/04 00:13:16;;;;;;;16.48;8.18;;;17.10;99.90;;;;;;4873085;29;20069;-93
2023/06/04 00:15:44;;;;;;;16.20;8.02;;;17.10;99.90;;;;;;4872882;29;20045;-94
2023/06/04 00:18:13;;;;;;;15.20;8.20;;;17.00;99.90;;;;;;4872356;29;20631;-94
2023/06/04 00:20:40;;;;;;;13.45;8.45;;;17.00;99.90;;;;;;4860748;29;20032;-95
2023/06/04 00:23:07;;;;;;;16.33;8.65;;;17.00;99.90;;;;;;4838177;29;20034;-94
2023/06/04 00:25:35;;;;;;;14.90;8.13;;;17.00;99.90;;;;;;4822822;29;20038;-94
2023/06/04 00:28:05;;;;;;;16.48;8.45;;;17.00;99.90;;;;;;4839723;29;20038;-93
2023/06/04 00:30:35;;;;;;;16.88;8.88;;;17.00;99.90;;;;;;4843501;29;20041;-93
2023/06/04 00:33:02;;;;;;;12.10;7.82;;;17.00;99.90;;;;;;4830389;29;20049;-93
2023/06/04 00:35:28;;;;;;;13.15;8.60;;;17.00;99.90;;;;;;4831053;29;20047;-94
2023/06/04 00:37:55;;;;;;;12.07;7.57;;;17.00;99.90;;;;;;4831829;29;20042;-94
2023/06/04 00:40:22;;;;;;;15.18;7.78;;;16.90;99.90;;;;;;4833510;29;20622;-94
2023/06/04 00:42:49;;;;;;;15.85;8.80;;;16.90;99.90;;;;;;4834102;29;20033;-94
2023/06/04 00:45:18;;;;;;;18.45;9.65;;;16.80;99.90;;;;;;4834131;29;20094;-94
2023/06/04 00:47:46;;;;;;;14.75;8.48;;;16.90;99.90;;;;;;4834779;29;20030;-94
2023/06/04 00:50:14;;;;;;;14.43;8.73;;;16.80;99.90;;;;;;4846355;29;20037;-94
2023/06/04 00:52:41;;;;;;;15.25;9.25;;;16.80;99.90;;;;;;4885136;29;20029;-93
2023/06/04 00:55:09;;;;;;;14.60;8.25;;;16.70;99.90;;;;;;4883989;29;20067;-93
2023/06/04 00:57:38;;;;;;;21.27;8.48;;;16.70;99.90;;;;;;4867877;29;20044;-93
2023/06/04 01:00:07;;;;;;;13.35;8.57;;;16.70;99.90;;;;;;4870942;29;20036;-94
2023/06/04 01:02:37;;;;;;;15.40;8.68;;;16.60;99.90;;;;;;4868554;29;20120;-93
2023/06/04 01:05:17;;;;;;;18.67;9.13;;;16.60;99.90;;;;;;4868089;29;20033;-93
2023/06/04 01:07:46;;;;;;;15.90;8.50;;;16.70;99.90;;;;;;4884300;29;20122;-95
2023/06/04 01:10:15;;;;;;;18.17;8.80;;;16.70;99.90;;;;;;4869390;29;20505;-93
2023/06/04 01:12:43;;;;;;;16.75;8.98;;;16.70;99.90;;;;;;4869903;29;20406;-93
2023/06/04 01:15:11;;;;;;;14.88;9.45;;;16.60;99.90;;;;;;4870867;29;20541;-94
2023/06/04 01:17:41;;;;;;;19.15;10.63;;;16.60;99.90;;;;;;4870150;29;20045;-94
2023/06/04 01:20:26;;;;;;;16.13;10.07;;;16.60;99.90;;;;;;4886318;29;20025;-95
2023/06/04 01:23:13;;;;;;;15.98;9.82;;;16.60;99.90;;;;;;4870591;29;20060;-93
2023/06/04 01:25:43;;;;;;;16.95;9.75;;;16.60;99.90;;;;;;4890772;29;20045;-94
2023/06/04 01:28:15;;;;;;;18.50;10.32;;;16.40;99.90;;;;;;4876871;29;20033;-94
2023/06/04 01:30:47;;;;;;;19.38;10.48;;;16.40;99.90;;;;;;4883706;29;20065;-95
2023/06/04 01:33:17;;;;;;;17.98;8.98;;;16.40;99.90;;;;;;4884628;29;20044;-93
2023/06/04 01:35:44;;;;;;;18.73;10.20;;;16.40;99.90;;;;;;4884171;29;20071;-94
2023/06/04 01:38:12;;;;;;;21.45;9.88;;;16.30;99.90;;;;;;4883390;29;20101;-94
2023/06/04 01:40:39;;;;;;;20.85;10.65;;;16.30;99.90;;;;;;4868665;29;20037;-94
2023/06/04 01:43:09;;;;;;;16.65;10.40;;;16.20;99.90;;;;;;4884732;29;20131;-94
2023/06/04 01:45:36;;;;;;;22.58;10.20;;;16.20;99.90;;;;;;4890501;29;20033;-94
2023/06/04 01:48:05;;;;;;;20.88;10.90;;;16.20;99.90;;;;;;4879344;29;20063;-93
2023/06/04 01:50:32;;;;;;;15.40;9.48;;;16.20;99.90;;;;;;4888318;29;20085;-93
2023/06/04 01:52:59;;;;;;;21.88;10.10;;;16.10;99.90;;;;;;4869010;29;20028;-93
2023/06/04 01:55:27;;;;;;;19.20;9.70;;;16.10;99.90;;;;;;4881635;29;20025;-94
2023/06/04 01:57:54;;;;;;;21.60;9.40;;;16.00;99.90;;;;;;4883320;29;20120;-93
2023/06/04 02:00:21;;;;;;;18.95;10.00;;;16.00;99.90;;;;;;4867152;29;20036;-93
2023/06/04 02:02:50;;;;;;;18.67;9.45;;;16.10;99.90;;;;;;4883393;29;20029;-93
2023/06/04 02:05:17;;;;;;;16.60;9.15;;;16.10;99.90;;;;;;4883276;29;20029;-93
2023/06/04 02:07:47;;;;;;;20.58;9.02;;;16.10;99.90;;;;;;4883238;29;20033;-93
2023/06/04 02:10:16;;;;;;;16.42;8.45;;;16.10;99.90;;;;;;4882313;29;20029;-94
2023/06/04 02:12:57;;;;;;;19.88;9.20;;;16.20;99.90;;;;;;4883133;29;20058;-93
2023/06/04 02:15:26;;;;;;;13.35;8.65;;;16.20;99.90;;;;;;4883965;29;20039;-93
2023/06/04 02:18:00;;;;;;;22.25;8.57;;;16.20;99.90;;;;;;4883184;29;20044;-93
2023/06/04 02:20:30;;;;;;;14.30;8.50;;;16.20;99.90;;;;;;4882574;29;20124;-93
2023/06/04 02:23:00;;;;;;;16.08;8.90;;;16.20;99.90;;;;;;4868830;29;20037;-94
2023/06/04 02:25:29;;;;;;;17.65;9.48;;;16.20;99.90;;;;;;4884464;29;20031;-94
2023/06/04 02:27:56;;;;;;;22.30;9.50;;;16.20;99.90;;;;;;4884333;29;20029;-94
2023/06/04 02:30:23;;;;;;;18.00;8.80;;;16.20;99.90;;;;;;4884611;29;20033;-94
2023/06/04 02:32:50;;;;;;;16.90;9.18;;;16.20;99.90;;;;;;4867342;29;20032;-95
2023/06/04 02:35:22;;;;;;;18.20;9.15;;;16.10;99.90;;;;;;4881976;29;20395;-93
2023/06/04 02:37:52;;;;;;;17.02;8.48;;;16.10;99.90;;;;;;4893098;29;20040;-94
2023/06/04 02:40:21;;;;;;;23.88;9.20;;;16.10;99.90;;;;;;4886255;29;20037;-94
2023/06/04 02:42:48;;;;;;;17.20;8.57;;;16.00;99.90;;;;;;4886049;29;20040;-94
2023/06/04 02:45:15;;;;;;;15.95;8.50;;;16.00;99.90;;;;;;4893115;29;20035;-94
2023/06/04 02:47:43;;;;;;;13.90;8.05;;;16.00;99.90;;;;;;4888061;29;20044;-94
2023/06/04 02:50:18;;;;;;;13.10;8.20;;;16.00;99.90;;;;;;4882997;29;20026;-95
2023/06/04 02:52:48;;;;;;;15.02;8.00;;;16.00;99.90;;;;;;4890493;29;20052;-94
2023/06/04 02:55:20;;;;;;;15.60;8.63;;;16.00;99.90;;;;;;4894613;29;20025;-94
2023/06/04 02:57:47;;;;;;;18.38;8.85;;;15.90;99.90;;;;;;4874861;29;20491;-94
2023/06/04 03:00:17;;;;;;;18.95;8.57;;;15.90;99.90;;;;;;4850230;29;20065;-94
2023/06/04 03:02:48;;;;;;;18.38;9.48;;;15.80;99.90;;;;;;4857126;29;20054;-94
2023/06/04 03:05:17;;;;;;;15.55;9.27;;;15.70;99.90;;;;;;4858650;29;20427;-94
2023/06/04 03:07:47;;;;;;;15.80;8.23;;;15.70;99.90;;;;;;4837974;29;20034;-94
2023/06/04 03:10:15;;;;;;;15.60;8.77;;;15.70;99.90;;;;;;4807261;29;20118;-93
2023/06/04 03:12:51;;;;;;;19.70;9.30;;;15.70;99.90;;;;;;4817687;29;20068;-95
2023/06/04 03:15:23;;;;;;;22.05;8.98;;;15.70;99.90;;;;;;4823112;29;20057;-93
2023/06/04 03:17:59;;;;;;;17.77;8.90;;;15.60;99.90;;;;;;4844204;29;20041;-93
2023/06/04 03:20:27;;;;;;;19.73;8.43;;;15.60;99.90;;;;;;4833461;29;20063;-94
2023/06/04 03:22:57;;;;;;;20.42;9.75;;;15.60;99.90;;;;;;4837854;29;20042;-95
2023/06/04 03:25:31;;;;;;;17.88;8.90;;;15.50;99.90;;;;;;4839120;29;20030;-94
2023/06/04 03:28:15;;;;;;;18.30;9.05;;;15.50;99.90;;;;;;4841099;29;20110;-94
2023/06/04 03:30:46;;;;;;;17.25;9.32;;;15.50;99.90;;;;;;4832441;29;20042;-93
2023/06/04 03:33:16;;;;;;;20.13;9.10;;;15.60;99.90;;;;;;4833198;29;20480;-94
2023/06/04 03:35:43;;;;;;;20.20;11.07;;;15.60;99.90;;;;;;4831616;29;20064;-93
2023/06/04 03:38:25;;;;;;;20.90;10.77;;;15.70;99.90;;;;;;4877006;29;20053;-93
2023/06/04 03:40:59;;;;;;;21.73;10.48;;;15.80;99.90;;;;;;4871677;29;20038;-94
2023/06/04 03:43:26;;;;;;;33.45;13.02;;;16.00;99.90;;;;;;4867990;29;20037;-94
2023/06/04 03:46:00;;;;;;;43.95;13.02;;;16.00;99.90;;;;;;4859055;29;20033;-94
2023/06/04 03:48:30;;;;;;;37.47;12.68;;;16.10;99.90;;;;;;4860537;29;20075;-95
2023/06/04 03:50:57;;;;;;;37.33;13.85;;;16.10;99.90;;;;;;4883467;29;20037;-93
2023/06/04 03:53:24;;;;;;;51.13;13.77;;;16.10;99.90;;;;;;4881544;29;20041;-94
2023/06/04 03:55:51;;;;;;;59.75;14.38;;;16.20;99.90;;;;;;4882416;29;20025;-94
2023/06/04 03:58:18;;;;;;;49.35;15.15;;;16.20;99.90;;;;;;4888586;29;20083;-93
2023/06/04 04:00:49;;;;;;;53.55;16.52;;;16.30;99.90;;;;;;4893572;29;20013;-94
2023/06/04 04:03:21;;;;;;;45.70;16.48;;;16.50;99.90;;;;;;4882022;29;20053;-94
2023/06/04 04:05:48;;;;;;;57.45;18.48;;;16.60;99.90;;;;;;4862346;29;20079;-95
2023/06/04 04:08:22;;;;;;;127.18;20.25;;;16.70;99.90;;;;;;4847106;29;20042;-94
2023/06/04 04:10:50;;;;;;;53.80;17.45;;;16.90;99.90;;;;;;4858756;29;20049;-95
2023/06/04 04:13:17;;;;;;;140.68;17.60;;;17.00;99.90;;;;;;4848666;29;20030;-94
2023/06/04 04:15:44;;;;;;;67.90;13.65;;;17.10;99.90;;;;;;4848350;29;20046;-94
2023/06/04 04:18:13;;;;;;;39.80;13.55;;;17.20;99.90;;;;;;4850645;29;20049;-94
2023/06/04 04:20:40;;;;;;;49.42;12.70;;;17.30;99.90;;;;;;4866967;29;20094;-95
2023/06/04 04:23:11;;;;;;;53.67;14.10;;;17.40;99.90;;;;;;4861751;29;20064;-94
2023/06/04 04:25:41;;;;;;;43.50;13.82;;;17.50;99.90;;;;;;4867765;29;20025;-94
2023/06/04 04:28:08;;;;;;;50.78;13.23;;;17.60;99.90;;;;;;4868909;29;20034;-94
2023/06/04 04:30:36;;;;;;;53.60;12.55;;;17.70;99.90;;;;;;4864809;29;20068;-93
2023/06/04 04:33:07;;;;;;;70.47;13.05;;;17.80;99.90;;;;;;4863847;29;20025;-93
2023/06/04 04:35:44;;;;;;;46.40;12.52;;;17.90;99.90;;;;;;4875197;29;20033;-93
2023/06/04 04:38:17;;;;;;;39.33;12.00;;;18.20;99.90;;;;;;4870448;29;20053;-94
2023/06/04 04:40:52;;;;;;;34.00;12.27;;;18.40;99.90;;;;;;4851455;29;20038;-94
2023/06/04 04:43:37;;;;;;;26.50;11.98;;;18.70;99.90;;;;;;4864595;29;20053;-94
2023/06/04 04:46:16;;;;;;;20.80;10.60;;;19.10;99.90;;;;;;4874390;29;20475;-95
2023/06/04 04:48:43;;;;;;;29.75;10.85;;;19.60;99.90;;;;;;4873410;29;20042;-94
2023/06/04 04:51:10;;;;;;;23.58;11.75;;;20.10;99.90;;;;;;4874262;29;20030;-94
2023/06/04 04:53:38;;;;;;;19.27;12.00;;;20.60;99.90;;;;;;4874266;29;20121;-94
2023/06/04 04:56:14;;;;;;;18.38;12.52;;;20.90;99.90;;;;;;4875496;29;20032;-95
2023/06/04 04:58:44;;;;;;;20.30;13.90;;;21.30;99.90;;;;;;4876777;29;20041;-94
2023/06/04 05:01:12;;;;;;;20.80;15.25;;;21.60;99.90;;;;;;4869376;29;20113;-95
2023/06/04 05:03:41;;;;;;;25.10;16.05;;;21.90;99.90;;;;;;4878352;29;20033;-95
2023/06/04 05:06:10;;;;;;;22.42;16.67;;;22.30;99.90;;;;;;4859430;29;20042;-94
2023/06/04 05:08:37;;;;;;;18.63;16.73;;;22.50;99.90;;;;;;4863222;29;20097;-94
2023/06/04 05:11:04;;;;;;;20.10;18.20;;;22.70;99.90;;;;;;4836337;29;20039;-93
2023/06/04 05:13:41;;;;;;;19.60;17.80;;;22.80;99.90;;;;;;4838903;29;20067;-94
2023/06/04 05:16:11;;;;;;;20.42;18.40;;;23.20;99.90;;;;;;4832314;29;20129;-92
2023/06/04 05:18:44;;;;;;;17.77;16.27;;;24.00;99.90;;;;;;4826928;29;20038;-92
2023/06/04 05:21:16;;;;;;;19.50;17.90;;;25.20;99.90;;;;;;4809747;29;20043;-93
2023/06/04 05:23:48;;;;;;;21.40;19.80;;;26.50;99.90;;;;;;4823249;29;20138;-93
2023/06/04 05:26:17;;;;;;;23.90;22.10;;;27.00;99.90;;;;;;4827742;29;20031;-94
2023/06/04 05:29:06;;;;;;;;;;;;;;;;;;;;;
2023/06/04 05:31:40;;;;;;;24.77;22.85;;;28.20;99.90;;;;;;4792676;29;19941;-94
2023/06/04 05:34:11;;;;;;;24.60;22.73;;;28.60;99.90;;;;;;4771643;30;20510;-93
2023/06/04 05:36:40;;;;;;;24.02;22.33;;;28.90;99.90;;;;;;4772514;30;20422;-94
2023/06/04 05:39:09;;;;;;;23.83;22.23;;;28.90;99.90;;;;;;4758951;30;20475;-93
2023/06/04 05:41:59;;;;;;;25.23;23.42;;;29.00;99.90;;;;;;4756837;30;20051;-93
2023/06/04 05:44:34;;;;;;;26.02;23.75;;;29.30;99.90;;;;;;4791299;29;20498;-94
2023/06/04 05:47:01;;;;;;;25.33;23.52;;;29.40;99.90;;;;;;4772033;30;20142;-94
2023/06/04 05:49:29;;;;;;;24.73;23.02;;;29.60;99.90;;;;;;4788096;30;20040;-91
2023/06/04 05:51:59;;;;;;;25.63;23.67;;;29.70;99.90;;;;;;4804548;29;20480;-94
2023/06/04 05:54:29;;;;;;;25.27;23.63;;;29.80;99.90;;;;;;4804959;29;20031;-91
2023/06/04 05:56:56;;;;;;;25.13;23.33;;;30.10;99.90;;;;;;4789564;29;20051;-92
2023/06/04 05:59:23;;;;;;;24.55;22.85;;;30.20;99.90;;;;;;4807240;29;20065;-91
2023/06/04 06:01:50;;;;;;;24.75;23.25;;;30.20;99.90;;;;;;4813067;29;20628;-93
2023/06/04 06:04:17;;;;;;;22.95;21.38;;;30.50;99.90;;;;;;4826245;29;20047;-92
2023/06/04 06:06:48;;;;;;;23.30;21.85;;;30.10;99.90;;;;;;4826582;29;20023;-92
2023/06/04 06:09:19;;;;;;;24.08;22.27;;;30.20;99.90;;;;;;4826580;29;20045;-93
2023/06/04 06:11:46;;;;;;;22.88;21.35;;;30.30;99.90;;;;;;4848496;29;20045;-92
2023/06/04 06:14:13;;;;;;;22.88;21.33;;;30.30;99.90;;;;;;4873187;29;20029;-93
2023/06/04 06:16:40;;;;;;;23.38;21.23;;;29.30;99.90;;;;;;4882312;29;20181;-93
2023/06/04 06:19:06;;;;;;;23.65;22.00;;;29.10;99.90;;;;;;4865284;29;20033;-93
2023/06/04 06:21:36;;;;;;;23.30;21.90;;;29.30;99.90;;;;;;4865553;29;20089;-91
2023/06/04 06:24:02;;;;;;;23.98;22.27;;;29.60;99.90;;;;;;4869920;29;20131;-93
2023/06/04 06:26:30;;;;;;;23.10;21.63;;;30.10;99.90;;;;;;4873954;29;20029;-93
2023/06/04 06:28:59;;;;;;;24.30;22.52;;;29.90;99.90;;;;;;4878113;29;20021;-91
2023/06/04 06:31:26;;;;;;;23.10;21.73;;;30.10;99.90;;;;;;4868491;29;20074;-92
2023/06/04 06:33:56;;;;;;;24.20;22.30;;;30.20;99.90;;;;;;4864815;29;20505;-93
2023/06/04 06:36:23;;;;;;;23.50;22.10;;;29.90;99.90;;;;;;4864404;29;20061;-92
2023/06/04 06:38:50;;;;;;;23.05;21.55;;;29.90;99.90;;;;;;4864804;29;20049;-92
2023/06/04 06:41:16;;;;;;;24.70;22.92;;;29.10;99.90;;;;;;4850388;29;20061;-93
2023/06/04 06:43:59;;;;;;;24.65;23.10;;;29.20;99.90;;;;;;4864512;29;20093;-94
2023/06/04 06:49:30;;;;;;;24.38;22.83;;;30.00;99.90;;;;;;5177743;23;20126;-94
2023/06/04 06:51:57;;;;;;;24.50;22.65;;;30.10;99.90;;;;;;4910243;29;20068;-93
2023/06/04 06:54:24;;;;;;;23.90;22.42;;;30.20;99.90;;;;;;4911556;29;20038;-94
2023/06/04 06:56:50;;;;;;;24.35;22.95;;;30.20;99.90;;;;;;4916548;29;20039;-93
2023/06/04 07:02:45;;;;;;;25.08;23.40;;;30.80;99.90;;;;;;4876953;29;20118;-94
2023/06/04 07:05:17;;;;;;;26.17;24.33;;;30.70;99.90;;;;;;4858732;29;20034;-94
2023/06/04 07:07:52;;;;;;;26.00;24.10;;;31.20;99.90;;;;;;4876350;29;20026;-93
2023/06/04 07:10:24;;;;;;;24.73;23.23;;;30.80;99.90;;;;;;4874662;29;20026;-94
2023/06/04 07:13:36;;;;;;;25.85;24.17;;;30.20;99.90;;;;;;4863410;29;20038;-93
2023/06/04 07:16:10;;;;;;;24.92;23.42;;;30.60;99.90;;;;;;4864592;29;20110;-94
2023/06/04 07:22:48;;;;;;;25.85;24.25;;;30.60;99.90;;;;;;5383685;23;20505;-94
2023/06/04 07:25:26;;;;;;;25.30;23.70;;;31.30;99.90;;;;;;5183842;23;20066;-94
2023/06/04 07:28:51;;;;;;;25.50;23.85;;;31.00;99.90;;;;;;4925208;29;20092;-94
2023/06/04 07:31:22;;;;;;;26.50;24.63;;;31.30;99.90;;;;;;4875532;29;20125;-94
2023/06/04 07:33:58;;;;;;;25.60;23.92;;;31.70;99.90;;;;;;4887336;29;20048;-92
2023/06/04 07:36:25;;;;;;;26.08;24.35;;;32.20;99.90;;;;;;4891263;29;20498;-94
2023/06/04 07:39:00;;;;;;;26.20;24.50;;;32.60;99.90;;;;;;4887925;29;20036;-93
2023/06/04 07:41:27;;;;;;;26.55;24.92;;;32.60;99.90;;;;;;4891432;29;20037;-93
2023/06/04 07:43:54;;;;;;;26.00;24.30;;;33.10;99.90;;;;;;4868210;29;20040;-94
2023/06/04 07:46:20;;;;;;;25.38;23.85;;;32.30;99.90;;;;;;4899486;29;20031;-93
2023/06/04 07:48:47;;;;;;;25.80;24.17;;;32.30;99.90;;;;;;4903576;29;20064;-94
2023/06/04 07:51:19;;;;;;;26.10;24.30;;;32.20;99.90;;;;;;4907572;29;20088;-94
2023/06/04 07:53:53;;;;;;;27.75;25.85;;;32.50;99.90;;;;;;4908319;29;20045;-94
2023/06/04 07:56:30;;;;;;;26.63;24.92;;;32.20;99.90;;;;;;4895838;29;20032;-92
2023/06/04 07:58:57;;;;;;;24.92;23.42;;;32.80;99.90;;;;;;4893341;29;20036;-95
2023/06/04 08:01:42;;;;;;;;;;;;;;;;;;;;;
2023/06/04 08:04:16;;;;;;;24.95;23.27;;;32.50;99.90;;;;;;4916315;29;20059;-93
2023/06/04 08:07:23;;;;;;;25.83;24.13;;;32.60;99.90;;;;;;4889930;29;20068;-94
2023/06/04 08:13:33;;;;;;;25.40;23.90;;;32.20;99.90;;;;;;4876465;29;20045;-93
2023/06/04 08:16:23;;;;;;;26.42;24.60;;;32.20;99.90;;;;;;4801217;29;20050;-94
2023/06/04 08:19:24;;;;;;;28.33;26.15;;;32.70;99.90;;;;;;4802082;29;20145;-93
2023/06/04 08:22:11;;;;;;;25.88;24.27;;;32.20;99.90;;;;;;4799988;29;20073;-92
2023/06/04 08:25:04;;;;;;;25.38;23.77;;;32.50;99.90;;;;;;4809167;29;20049;-94
2023/06/04 08:27:40;;;;;;;25.45;23.90;;;32.60;99.90;;;;;;4816609;29;20133;-94
2023/06/04 08:30:25;;;;;;;27.85;26.05;;;33.10;99.90;;;;;;4816865;29;20110;-95
2023/06/04 08:33:01;;;;;;;25.88;23.70;;;33.50;99.90;;;;;;4813691;29;20035;-93
2023/06/04 08:35:42;;;;;;;25.38;23.88;;;33.50;99.90;;;;;;4811889;29;20134;-93
2023/06/04 08:38:32;;;;;;;;;;;;;;;;;;;;;
2023/06/04 08:41:39;;;;;;;27.80;26.00;;;33.10;99.90;;;;;;4817639;29;20035;-93
2023/06/04 08:44:15;;;;;;;26.35;24.75;;;33.30;99.90;;;;;;4816216;29;20047;-94
2023/06/04 08:46:51;;;;;;;28.20;26.38;;;33.00;99.90;;;;;;4862581;29;20044;-93
2023/06/04 08:49:28;;;;;;;27.02;25.52;;;32.20;99.90;;;;;;4898624;29;20419;-93
2023/06/04 08:52:01;;;;;;;27.75;25.85;;;32.60;99.90;;;;;;4883005;29;20064;-92
2023/06/04 08:54:56;;;;;;;27.23;25.52;;;33.00;99.90;;;;;;4884150;29;20052;-93
2023/06/04 08:57:51;;;;;;;26.33;24.60;;;33.20;99.90;;;;;;4878923;29;20050;-93
2023/06/04 09:00:36;;;;;;;27.05;25.45;;;32.90;99.90;;;;;;4879783;29;20046;-93
2023/06/04 09:03:31;;;;;;;27.35;25.55;;;32.50;99.90;;;;;;4931381;29;20509;-94
2023/06/04 09:06:00;;;;;;;27.27;25.67;;;33.30;99.90;;;;;;4909151;29;20035;-93
2023/06/04 09:08:31;;;;;;;25.50;23.90;;;32.90;99.90;;;;;;4910318;29;20063;-93
2023/06/04 09:11:06;;;;;;;26.48;24.60;;;33.10;99.90;;;;;;4911038;29;20043;-93
2023/06/04 09:13:35;;;;;;;25.48;23.88;;;32.50;99.90;;;;;;4926464;29;20032;-93
2023/06/04 09:16:03;;;;;;;25.33;23.73;;;32.30;99.90;;;;;;4910856;29;20051;-93
2023/06/04 09:18:34;;;;;;;25.38;23.85;;;32.00;99.90;;;;;;4924582;29;20485;-93
2023/06/04 09:21:07;;;;;;;26.10;24.42;;;32.40;99.90;;;;;;4891673;29;20028;-93
2023/06/04 09:23:57;;;;;;;26.00;24.40;;;32.90;99.90;;;;;;4900549;24;20071;-93
2023/06/04 09:26:28;;;;;;;26.13;24.52;;;32.70;99.90;;;;;;4899248;29;20047;-93
2023/06/04 09:28:57;;;;;;;25.85;24.15;;;32.20;99.90;;;;;;4914342;29;20047;-94
2023/06/04 23:28:36;;;;;;;21.58;15.27;;;18.30;99.90;;;;;;5487274;23;20060;-91
2023/06/04 23:31:02;;;;;;;26.20;15.15;;;18.20;99.90;;;;;;4901207;29;20115;-94
2023/06/04 23:33:29;;;;;;;25.00;15.40;;;18.30;99.90;;;;;;4901269;29;20035;-93
2023/06/04 23:35:55;;;;;;;24.50;16.23;;;18.20;99.90;;;;;;4901314;29;20028;-91
2023/06/04 23:38:21;;;;;;;22.85;15.02;;;18.20;99.90;;;;;;4885455;29;20493;-92
2023/06/04 23:40:48;;;;;;;22.45;15.48;;;18.10;99.90;;;;;;4885728;29;20039;-93
2023/06/04 23:43:15;;;;;;;23.02;15.23;;;18.10;99.90;;;;;;4885750;29;20036;-92
2023/06/04 23:45:41;;;;;;;23.67;15.85;;;18.10;99.90;;;;;;4901414;29;20033;-92
2023/06/04 23:48:08;;;;;;;21.20;14.52;;;18.00;99.90;;;;;;4886098;29;20059;-93
2023/06/04 23:50:35;;;;;;;21.40;14.95;;;18.00;99.90;;;;;;4885982;29;20024;-91
2023/06/04 23:53:01;;;;;;;22.80;14.77;;;18.00;99.90;;;;;;4886014;29;20028;-93
2023/06/04 23:55:27;;;;;;;24.13;15.15;;;18.00;99.90;;;;;;4901219;29;20103;-93
2023/06/04 23:57:53;;;;;;;24.23;14.98;;;18.00;99.90;;;;;;4885492;29;20032;-93
